createdAt,value
2023-05-24T00:02:14.297Z,10.83
2023-05-24T00:04:43.020Z,14.90
2023-05-24T00:07:12.732Z,7.67
2023-05-24T00:09:41.018Z,7.43
2023-05-24T00:12:09.788Z,6.40
2023-05-24T00:14:38.416Z,6.60
2023-05-24T00:17:06.928Z,9.20
2023-05-24T00:19:38.512Z,8.43
2023-05-24T00:22:06.931Z,12.33
2023-05-24T00:24:35.329Z,7.53
2023-05-24T00:27:03.689Z,7.50
2023-05-24T00:29:32.426Z,9.67
2023-05-24T00:32:00.868Z,7.67
2023-05-24T00:34:31.262Z,9.67
2023-05-24T00:37:01.008Z,7.27
2023-05-24T00:39:29.277Z,7.83
2023-05-24T00:41:57.592Z,8.00
2023-05-24T00:44:25.909Z,9.00
2023-05-24T00:46:54.315Z,7.10
2023-05-24T00:49:24.399Z,7.63
2023-05-24T00:51:54.128Z,8.60
2023-05-24T00:54:26.392Z,7.70
2023-05-24T00:56:56.204Z,14.23
2023-05-24T00:59:25.353Z,8.20
2023-05-24T01:01:55.698Z,7.70
2023-05-24T01:04:24.319Z,8.70
2023-05-24T01:07:04.355Z,8.30
2023-05-24T01:09:42.671Z,10.07
2023-05-24T01:12:21.363Z,11.40
2023-05-24T01:14:59.811Z,12.53
2023-05-24T01:17:34.293Z,17.00
2023-05-24T01:20:08.968Z,14.20
2023-05-24T01:23:13.727Z,12.00
2023-05-24T01:26:07.446Z,9.03
2023-05-24T01:28:37.818Z,7.70
2023-05-24T01:31:07.012Z,9.27
2023-05-24T01:33:35.519Z,10.47
2023-05-24T01:36:03.872Z,8.20
2023-05-24T01:38:32.191Z,11.43
2023-05-24T01:41:07.038Z,8.10
2023-05-24T01:43:42.238Z,8.50
2023-05-24T01:46:19.511Z,7.87
2023-05-24T01:48:56.731Z,12.00
2023-05-24T01:51:27.831Z,9.07
2023-05-24T01:53:59.799Z,9.37
2023-05-24T01:56:32.211Z,14.60
2023-05-24T01:59:03.878Z,12.17
2023-05-24T02:01:33.379Z,13.00
2023-05-24T02:04:01.833Z,11.23
2023-05-24T02:06:30.211Z,9.90
2023-05-24T02:08:58.719Z,11.37
2023-05-24T02:11:27.789Z,8.83
2023-05-24T02:13:56.065Z,12.30
2023-05-24T02:16:27.080Z,11.13
2023-05-24T02:18:55.659Z,12.03
2023-05-24T02:21:24.498Z,11.17
2023-05-24T02:23:52.825Z,11.40
2023-05-24T02:26:21.268Z,8.80
2023-05-24T02:28:49.596Z,10.93
2023-05-24T02:31:18.627Z,10.40
2023-05-24T02:33:48.485Z,8.13
2023-05-24T02:36:16.882Z,8.37
2023-05-24T02:38:45.411Z,12.83
2023-05-24T02:41:17.990Z,11.13
2023-05-24T02:43:46.327Z,10.27
2023-05-24T02:46:15.049Z,9.13
2023-05-24T02:48:43.389Z,13.83
2023-05-24T02:51:13.238Z,10.33
2023-05-24T02:53:43.621Z,11.87
2023-05-24T02:56:13.902Z,10.70
2023-05-24T02:58:42.275Z,9.20
2023-05-24T03:01:10.589Z,8.40
2023-05-24T03:03:38.997Z,12.63
2023-05-24T03:06:08.368Z,8.50
2023-05-24T03:08:38.208Z,7.87
2023-05-24T03:11:06.810Z,11.57
2023-05-24T03:13:35.135Z,12.77
2023-05-24T03:16:03.518Z,8.23
2023-05-24T03:18:31.975Z,12.30
2023-05-24T03:21:00.296Z,8.50
2023-05-24T03:23:28.644Z,10.80
2023-05-24T03:25:58.514Z,13.87
2023-05-24T03:28:27.642Z,9.37
2023-05-24T03:30:55.997Z,8.73
2023-05-24T03:33:24.287Z,13.87
2023-05-24T03:35:52.694Z,7.90
2023-05-24T03:38:20.972Z,10.20
2023-05-24T03:40:49.205Z,8.23
2023-05-24T03:43:20.428Z,11.43
2023-05-24T03:45:48.957Z,13.10
2023-05-24T03:48:17.280Z,17.30
2023-05-24T03:50:45.696Z,8.43
2023-05-24T03:53:14.375Z,8.97
2023-05-24T03:55:42.774Z,9.60
2023-05-24T03:58:12.734Z,11.27
2023-05-24T04:00:42.822Z,11.00
2023-05-24T04:03:12.339Z,11.07
2023-05-24T04:05:40.832Z,9.53
2023-05-24T04:08:09.211Z,8.00
2023-05-24T04:10:37.667Z,12.00
2023-05-24T04:13:05.931Z,8.77
2023-05-24T04:15:34.255Z,13.57
2023-05-24T04:18:03.972Z,9.70
2023-05-24T04:20:32.655Z,11.30
2023-05-24T04:23:01.067Z,9.87
2023-05-24T04:25:29.755Z,14.30
2023-05-24T04:27:58.408Z,10.33
2023-05-24T04:30:30.217Z,8.70
2023-05-24T04:32:58.567Z,15.00
2023-05-24T04:35:28.425Z,15.33
2023-05-24T04:37:57.751Z,11.27
2023-05-24T04:40:26.268Z,9.27
2023-05-24T04:42:54.509Z,12.23
2023-05-24T04:45:23.008Z,11.40
2023-05-24T04:47:51.314Z,7.60
2023-05-24T04:50:19.839Z,8.23
2023-05-24T04:52:49.783Z,7.60
2023-05-24T04:55:18.119Z,13.43
2023-05-24T04:57:46.423Z,12.13
2023-05-24T05:00:15.664Z,24.27
2023-05-24T05:02:44.140Z,16.60
2023-05-24T05:05:12.788Z,10.83
2023-05-24T05:07:41.103Z,6.87
2023-05-24T05:10:11.194Z,6.23
2023-05-24T05:12:40.059Z,10.20
2023-05-24T05:15:10.095Z,6.10
2023-05-24T05:17:38.609Z,9.43
2023-05-24T05:20:08.268Z,7.57
2023-05-24T05:22:36.739Z,8.13
2023-05-24T05:25:05.366Z,21.37
2023-05-24T05:27:35.139Z,8.43
2023-05-24T05:30:03.626Z,6.20
2023-05-24T05:32:32.009Z,19.00
2023-05-24T05:35:00.496Z,31.77
2023-05-24T05:37:29.983Z,22.30
2023-05-24T05:39:58.452Z,16.60
2023-05-24T05:42:26.806Z,17.90
2023-05-24T05:44:56.672Z,22.93
2023-05-24T05:47:25.004Z,15.97
2023-05-24T05:49:53.310Z,16.17
2023-05-24T05:52:21.776Z,15.73
2023-05-24T05:54:50.065Z,20.20
2023-05-24T05:57:24.258Z,20.63
2023-05-24T05:59:52.849Z,18.13
2023-05-24T06:02:23.167Z,23.27
2023-05-24T06:04:51.985Z,20.08
2023-05-24T06:07:20.347Z,17.90
2023-05-24T06:09:48.683Z,17.33
2023-05-24T06:12:18.384Z,18.57
2023-05-24T06:14:48.403Z,18.57
2023-05-24T06:17:16.844Z,17.37
2023-05-24T06:19:47.012Z,17.83
2023-05-24T06:22:15.256Z,25.67
2023-05-24T06:24:43.933Z,25.90
2023-05-24T06:27:12.374Z,16.97
2023-05-24T06:29:41.070Z,21.03
2023-05-24T06:32:09.468Z,28.97
2023-05-24T06:34:44.463Z,21.63
2023-05-24T06:37:15.902Z,18.47
2023-05-24T06:39:44.212Z,18.47
2023-05-24T06:42:12.504Z,19.87
2023-05-24T06:44:40.926Z,18.63
2023-05-24T06:47:09.586Z,17.70
2023-05-24T06:49:38.252Z,14.57
2023-05-24T06:52:08.507Z,13.93
2023-05-24T06:54:38.241Z,14.60
2023-05-24T06:57:06.890Z,12.57
2023-05-24T06:59:36.281Z,12.90
2023-05-24T07:02:04.975Z,12.40
2023-05-24T07:04:33.690Z,12.43
2023-05-24T07:07:03.140Z,14.43
2023-05-24T07:09:31.775Z,13.73
2023-05-24T07:12:02.684Z,14.67
2023-05-24T07:14:30.971Z,17.10
2023-05-24T07:17:00.076Z,14.50
2023-05-24T07:19:29.805Z,14.77
2023-05-24T07:21:58.592Z,14.00
2023-05-24T07:24:26.889Z,14.23
2023-05-24T07:26:56.912Z,12.40
2023-05-24T07:29:27.168Z,13.17
2023-05-24T07:31:58.178Z,12.47
2023-05-24T07:34:28.111Z,13.13
2023-05-24T07:36:56.864Z,15.47
2023-05-24T07:39:25.388Z,14.87
2023-05-24T07:41:53.845Z,18.40
2023-05-24T07:44:22.400Z,16.80
2023-05-24T07:46:52.269Z,17.67
2023-05-24T07:49:20.779Z,17.70
2023-05-24T07:51:49.394Z,17.20
2023-05-24T07:54:17.819Z,16.43
2023-05-24T07:56:46.159Z,21.60
2023-05-24T07:59:14.444Z,20.37
2023-05-24T08:01:42.916Z,19.23
2023-05-24T08:04:12.609Z,19.30
2023-05-24T08:06:41.051Z,20.10
2023-05-24T08:09:10.307Z,18.17
2023-05-24T08:11:38.775Z,14.47
2023-05-24T08:14:07.112Z,23.00
2023-05-24T08:16:35.474Z,19.57
2023-05-24T08:19:03.816Z,22.37
2023-05-24T08:21:33.963Z,21.57
2023-05-24T08:24:02.287Z,17.60
2023-05-24T08:26:30.620Z,20.00
2023-05-24T08:28:59.190Z,21.20
2023-05-24T08:31:27.627Z,24.03
2023-05-24T08:33:57.805Z,20.67
2023-05-24T08:36:26.869Z,17.60
2023-05-24T08:38:56.653Z,19.87
2023-05-24T08:41:24.941Z,22.40
2023-05-24T08:43:54.519Z,17.53
2023-05-24T08:46:23.611Z,17.27
2023-05-24T08:48:53.636Z,15.50
2023-05-24T08:51:22.079Z,26.93
2023-05-24T08:53:53.145Z,20.37
2023-05-24T08:56:24.232Z,26.37
2023-05-24T08:58:52.841Z,36.73
2023-05-24T09:01:21.719Z,45.87
2023-05-24T09:03:51.867Z,19.70
2023-05-24T09:06:20.982Z,22.93
2023-05-24T09:08:52.536Z,22.93
2023-05-24T09:11:23.009Z,24.90
2023-05-24T09:13:52.040Z,20.57
2023-05-24T09:16:20.515Z,23.43
2023-05-24T09:18:49.036Z,25.70
2023-05-24T09:21:17.826Z,21.53
2023-05-24T09:23:46.753Z,18.43
2023-05-24T09:26:15.082Z,25.17
2023-05-24T09:28:44.816Z,26.23
2023-05-24T09:31:13.989Z,19.97
2023-05-24T09:33:42.397Z,25.67
2023-05-24T09:36:11.887Z,22.83
2023-05-24T09:38:40.210Z,25.93
2023-05-24T09:41:11.062Z,24.93
2023-05-24T09:43:51.017Z,22.90
2023-05-24T09:46:20.130Z,22.83
2023-05-24T09:48:58.965Z,22.83
2023-05-24T09:51:27.891Z,19.43
2023-05-24T09:53:59.135Z,22.00
2023-05-24T09:56:28.197Z,24.57
2023-05-24T09:58:58.149Z,17.50
2023-05-24T10:01:27.058Z,17.67
2023-05-24T10:03:56.321Z,22.10
2023-05-24T10:06:25.221Z,21.47
2023-05-24T10:08:55.938Z,17.53
2023-05-24T10:11:24.261Z,14.83
2023-05-24T10:13:52.697Z,17.30
2023-05-24T10:16:22.595Z,11.37
2023-05-24T10:18:51.833Z,12.40
2023-05-24T10:21:23.497Z,13.83
2023-05-24T10:23:58.755Z,10.27
2023-05-24T10:26:30.944Z,9.90
2023-05-24T10:29:06.051Z,8.20
2023-05-24T10:31:39.315Z,10.20
2023-05-24T10:34:09.355Z,10.33
2023-05-24T10:36:40.687Z,9.40
2023-05-24T10:39:12.533Z,8.80
2023-05-24T10:41:42.226Z,9.13
2023-05-24T10:44:14.567Z,9.13
2023-05-24T10:47:19.694Z,8.03
2023-05-24T10:49:53.227Z,12.77
2023-05-24T10:52:22.128Z,8.70
2023-05-24T10:55:09.855Z,7.50
2023-05-24T10:57:39.479Z,9.20
2023-05-24T11:03:04.351Z,7.70
2023-05-24T11:05:53.212Z,8.83
2023-05-24T11:08:27.650Z,8.97
2023-05-24T11:11:23.430Z,11.00
2023-05-24T11:13:58.413Z,9.47
2023-05-24T11:16:39.494Z,11.93
2023-05-24T11:19:18.527Z,7.53
2023-05-24T11:21:49.731Z,7.10
2023-05-24T11:24:19.242Z,8.23
2023-05-24T11:26:48.225Z,6.83
2023-05-24T11:29:21.164Z,6.30
2023-05-24T11:31:50.821Z,6.50
2023-05-24T11:34:19.368Z,7.57
2023-05-24T11:36:50.276Z,5.93
2023-05-24T11:39:18.765Z,5.80
2023-05-24T11:41:49.004Z,5.87
2023-05-24T11:44:19.418Z,6.10
2023-05-24T11:46:48.368Z,8.63
2023-05-24T11:49:18.580Z,6.83
2023-05-24T11:51:48.380Z,15.67
2023-05-24T11:54:16.727Z,8.20
2023-05-24T11:56:45.083Z,5.93
2023-05-24T11:59:17.784Z,6.77
2023-05-24T12:01:46.426Z,6.20
2023-05-24T12:04:14.977Z,7.83
2023-05-24T12:06:45.063Z,6.80
2023-05-24T12:09:18.769Z,7.53
2023-05-24T12:11:50.227Z,8.13
2023-05-24T12:14:20.161Z,12.27
2023-05-24T12:16:50.256Z,10.93
2023-05-24T12:19:32.424Z,15.50
2023-05-24T12:22:02.752Z,10.03
2023-05-24T12:24:33.383Z,10.37
2023-05-24T12:27:03.656Z,13.80
2023-05-24T12:29:36.746Z,12.70
2023-05-24T12:32:06.719Z,13.90
2023-05-24T12:34:35.188Z,11.00
2023-05-24T12:37:04.359Z,12.80
2023-05-24T12:39:37.990Z,15.03
2023-05-24T12:42:06.679Z,13.80
2023-05-24T12:44:37.761Z,15.23
2023-05-24T12:47:08.986Z,13.47
2023-05-24T12:49:37.861Z,13.00
2023-05-24T12:52:07.140Z,12.43
2023-05-24T12:54:37.132Z,20.70
2023-05-24T12:57:05.851Z,12.30
2023-05-24T12:59:35.513Z,16.60
2023-05-24T13:02:03.991Z,13.93
2023-05-24T13:04:34.023Z,15.87
2023-05-24T13:07:03.383Z,10.50
2023-05-24T13:09:31.843Z,14.00
2023-05-24T13:12:01.819Z,13.43
2023-05-24T13:14:30.165Z,12.93
2023-05-24T13:16:58.621Z,10.93
2023-05-24T13:19:27.103Z,13.00
2023-05-24T13:21:55.672Z,9.80
2023-05-24T13:24:24.422Z,13.47
2023-05-24T13:26:54.829Z,12.80
2023-05-24T13:31:56.606Z,16.87
2023-05-24T13:34:25.961Z,9.90
2023-05-24T13:36:55.347Z,8.23
2023-05-24T13:39:24.041Z,7.60
2023-05-24T13:41:52.395Z,6.90
2023-05-24T13:44:21.515Z,7.03
2023-05-24T13:46:51.337Z,7.67
2023-05-24T13:49:19.792Z,8.27
2023-05-24T13:51:48.215Z,10.60
2023-05-24T13:54:16.835Z,7.20
2023-05-24T13:56:45.446Z,6.50
2023-05-24T13:59:13.717Z,6.60
2023-05-24T14:01:42.273Z,6.13
2023-05-24T14:04:12.189Z,6.67
2023-05-24T14:06:40.538Z,9.50
2023-05-24T14:09:09.189Z,14.20
2023-05-24T14:11:37.672Z,7.10
2023-05-24T14:16:37.600Z,6.57
2023-05-24T14:19:06.422Z,7.13
2023-05-24T14:21:36.529Z,8.70
2023-05-24T14:24:05.158Z,8.77
2023-05-24T14:26:33.497Z,6.90
2023-05-24T14:29:01.793Z,6.17
2023-05-24T14:31:30.174Z,7.50
2023-05-24T14:33:58.778Z,9.50
2023-05-24T14:36:27.121Z,8.53
2023-05-24T14:38:56.849Z,6.70
2023-05-24T14:41:25.159Z,7.37
2023-05-24T14:43:53.659Z,8.87
2023-05-24T14:46:21.961Z,8.33
2023-05-24T14:48:50.322Z,10.90
2023-05-24T14:51:18.797Z,7.17
2023-05-24T14:53:47.141Z,7.13
2023-05-24T14:56:17.239Z,7.33
2023-05-24T14:58:45.757Z,8.43
2023-05-24T15:01:14.263Z,9.17
2023-05-24T15:03:44.263Z,7.27
2023-05-24T15:06:13.684Z,7.17
2023-05-24T15:08:41.965Z,10.67
2023-05-24T15:11:10.218Z,9.37
2023-05-24T15:13:40.062Z,14.87
2023-05-24T15:16:08.754Z,7.73
2023-05-24T15:18:37.034Z,7.30
2023-05-24T15:21:05.419Z,11.97
2023-05-24T15:23:33.788Z,6.90
2023-05-24T15:26:02.277Z,10.40
2023-05-24T15:28:30.820Z,8.10
2023-05-24T15:31:02.081Z,7.63
2023-05-24T15:33:30.721Z,7.37
2023-05-24T15:35:59.191Z,7.23
2023-05-24T15:38:27.531Z,7.97
2023-05-24T15:40:55.826Z,8.83
2023-05-24T15:43:24.539Z,10.27
2023-05-24T15:45:53.722Z,7.77
2023-05-24T15:48:24.084Z,7.60
2023-05-24T15:51:43.001Z,8.03
2023-05-24T15:53:40.802Z,7.10
2023-05-24T15:56:10.335Z,6.80
2023-05-24T15:58:38.731Z,7.80
2023-05-24T16:01:07.483Z,9.70
2023-05-24T16:03:38.265Z,7.77
2023-05-24T16:06:07.102Z,7.43
2023-05-24T16:08:35.493Z,8.60
2023-05-24T16:11:08.334Z,7.70
2023-05-24T16:13:36.796Z,12.73
2023-05-24T16:16:05.232Z,9.40
2023-05-24T16:18:35.490Z,19.13
2023-05-24T16:21:05.523Z,7.20
2023-05-24T16:23:34.120Z,7.40
2023-05-24T16:26:02.449Z,6.87
2023-05-24T16:28:30.812Z,8.03
2023-05-24T16:31:02.945Z,7.20
2023-05-24T16:33:31.380Z,10.97
2023-05-24T16:36:03.428Z,8.13
2023-05-24T16:38:33.920Z,8.43
2023-05-24T16:41:02.266Z,8.10
2023-05-24T16:43:30.735Z,8.10
2023-05-24T16:45:59.182Z,15.47
2023-05-24T16:48:31.547Z,10.00
2023-05-24T16:51:00.185Z,7.97
2023-05-24T16:53:29.051Z,7.93
2023-05-24T16:55:58.958Z,7.80
2023-05-24T16:58:29.019Z,11.30
2023-05-24T17:00:57.486Z,10.40
2023-05-24T17:03:29.237Z,8.00
2023-05-24T17:06:03.556Z,9.17
2023-05-24T17:08:34.376Z,9.97
2023-05-24T17:11:04.730Z,11.90
2023-05-24T17:13:33.468Z,8.93
2023-05-24T17:16:01.875Z,7.77
2023-05-24T17:18:30.261Z,11.87
2023-05-24T17:20:59.164Z,12.83
2023-05-24T17:23:28.399Z,7.53
2023-05-24T17:25:56.775Z,19.73
2023-05-24T17:28:28.404Z,13.37
2023-05-24T17:30:56.737Z,12.17
2023-05-24T17:33:26.827Z,9.13
2023-05-24T17:35:56.672Z,8.37
2023-05-24T17:38:25.882Z,9.30
2023-05-24T17:40:59.507Z,9.10
2023-05-24T17:43:32.623Z,14.10
2023-05-24T17:46:06.568Z,15.50
2023-05-24T17:48:36.915Z,8.73
2023-05-24T17:51:07.072Z,7.87
2023-05-24T17:53:36.113Z,9.40
2023-05-24T17:56:05.348Z,18.50
2023-05-24T17:58:37.364Z,15.50
2023-05-24T18:01:07.500Z,17.63
2023-05-24T18:03:37.720Z,13.40
2023-05-24T18:06:07.542Z,14.40
2023-05-24T18:08:38.527Z,19.00
2023-05-24T18:11:09.627Z,18.00
2023-05-24T18:13:40.224Z,21.23
2023-05-24T18:16:09.824Z,23.93
2023-05-24T18:18:38.947Z,15.13
2023-05-24T18:21:07.759Z,17.30
2023-05-24T18:23:38.142Z,34.80
2023-05-24T18:26:08.567Z,17.63
2023-05-24T18:28:38.220Z,24.80
2023-05-24T18:31:10.534Z,18.70
2023-05-24T18:33:39.325Z,17.20
2023-05-24T18:36:08.454Z,9.53
2023-05-24T18:38:37.708Z,10.23
2023-05-24T18:41:09.469Z,13.37
2023-05-24T18:43:37.855Z,14.17
2023-05-24T18:46:07.688Z,18.40
2023-05-24T18:48:36.085Z,12.30
2023-05-24T18:51:04.671Z,13.23
2023-05-24T18:53:33.056Z,15.33
2023-05-24T18:56:01.580Z,14.23
2023-05-24T18:58:30.024Z,12.97
2023-05-24T19:00:58.632Z,19.00
2023-05-24T19:03:28.570Z,9.27
2023-05-24T19:05:57.030Z,12.80
2023-05-24T19:08:26.148Z,15.10
2023-05-24T19:10:54.556Z,15.03
2023-05-24T19:13:23.121Z,11.80
2023-05-24T19:15:51.461Z,16.33
2023-05-24T19:18:19.794Z,9.03
2023-05-24T19:20:49.975Z,12.90
2023-05-24T19:23:18.392Z,12.47
2023-05-24T19:25:50.239Z,11.80
2023-05-24T19:28:18.821Z,8.03
2023-05-24T19:30:47.123Z,10.37
2023-05-24T19:33:15.547Z,9.03
2023-05-24T19:35:44.281Z,21.73
2023-05-24T19:38:17.980Z,7.93
2023-05-24T19:40:46.356Z,9.90
2023-05-24T19:43:14.636Z,15.50
2023-05-24T19:45:43.065Z,11.93
2023-05-24T19:48:11.569Z,10.87
2023-05-24T19:50:40.776Z,13.70
2023-05-24T19:53:09.176Z,31.63
2023-05-24T19:55:38.939Z,11.33
2023-05-24T19:58:07.281Z,16.93
2023-05-24T20:00:35.832Z,21.97
2023-05-24T20:03:04.261Z,18.17
2023-05-24T20:05:32.600Z,13.00
2023-05-24T20:08:01.317Z,13.83
2023-05-24T20:10:32.063Z,14.07
2023-05-24T20:13:01.890Z,20.07
2023-05-24T20:15:30.561Z,13.47
2023-05-24T20:17:59.437Z,17.93
2023-05-24T20:20:27.885Z,14.17
2023-05-24T20:22:56.270Z,13.60
2023-05-24T20:25:25.113Z,12.93
2023-05-24T20:27:53.363Z,13.10
2023-05-24T20:30:23.174Z,14.03
2023-05-24T20:32:51.580Z,15.63
2023-05-24T20:35:20.720Z,18.53
2023-05-24T20:37:49.080Z,16.87
2023-05-24T20:40:22.802Z,24.20
2023-05-24T20:42:51.145Z,17.00
2023-05-24T20:45:19.937Z,14.47
2023-05-24T20:47:49.907Z,20.27
2023-05-24T20:50:18.554Z,14.13
2023-05-24T20:52:46.964Z,15.50
2023-05-24T20:55:16.455Z,16.77
2023-05-24T20:57:44.980Z,20.80
2023-05-24T21:00:14.324Z,15.90
2023-05-24T21:02:42.751Z,17.90
2023-05-24T21:05:12.735Z,14.37
2023-05-24T21:07:41.332Z,21.10
2023-05-24T21:10:11.239Z,19.03
2023-05-24T21:12:39.548Z,17.37
2023-05-24T21:15:11.904Z,19.10
2023-05-24T21:17:40.417Z,18.83
2023-05-24T21:20:09.479Z,16.77
2023-05-24T21:22:39.404Z,21.23
2023-05-24T21:25:09.093Z,13.53
2023-05-24T21:27:37.502Z,18.40
2023-05-24T21:30:06.419Z,15.73
2023-05-24T21:32:34.695Z,15.93
2023-05-24T21:35:03.031Z,19.83
2023-05-24T21:37:31.390Z,16.13
2023-05-24T21:40:01.042Z,12.43
2023-05-24T21:42:29.369Z,13.70
2023-05-24T21:44:57.826Z,13.87
2023-05-24T21:47:26.264Z,11.10
2023-05-24T21:49:55.185Z,16.17
2023-05-24T21:52:24.721Z,14.07
2023-05-24T21:54:52.989Z,20.60
2023-05-24T21:57:24.883Z,16.33
2023-05-24T21:59:54.439Z,19.53
2023-05-24T22:02:22.814Z,15.77
2023-05-24T22:04:51.291Z,15.90
2023-05-24T22:07:19.689Z,15.87
2023-05-24T22:09:48.049Z,16.00
2023-05-24T22:12:16.286Z,16.33
2023-05-24T22:14:46.288Z,16.67
2023-05-24T22:17:15.018Z,14.80
2023-05-24T22:19:44.130Z,14.30
2023-05-24T22:22:12.603Z,18.07
2023-05-24T22:24:40.960Z,13.10
2023-05-24T22:27:13.995Z,15.10
2023-05-24T22:29:42.372Z,18.23
2023-05-24T22:32:12.249Z,17.97
2023-05-24T22:34:40.824Z,16.80
2023-05-24T22:37:09.259Z,17.40
2023-05-24T22:39:37.652Z,14.90
2023-05-24T22:42:06.454Z,20.07
2023-05-24T22:44:34.962Z,18.67
2023-05-24T22:47:03.502Z,19.23
2023-05-24T22:49:34.297Z,28.43
2023-05-24T22:52:02.736Z,25.13
2023-05-24T22:54:31.021Z,15.23
2023-05-24T22:56:59.314Z,14.20
2023-05-24T22:59:27.773Z,11.50
2023-05-24T23:01:56.289Z,10.10
2023-05-24T23:04:27.727Z,11.27
2023-05-24T23:06:57.882Z,9.73
2023-05-24T23:09:34.207Z,14.57
2023-05-24T23:12:02.953Z,10.73
2023-05-24T23:14:31.584Z,12.60
2023-05-24T23:17:02.665Z,7.97
2023-05-24T23:19:31.329Z,9.83
2023-05-24T23:22:03.510Z,8.17
2023-05-24T23:24:32.045Z,6.73
2023-05-24T23:27:00.941Z,6.73
2023-05-24T23:29:29.241Z,8.10
2023-05-24T23:31:57.556Z,6.60
2023-05-24T23:34:25.933Z,6.57
2023-05-24T23:36:54.541Z,12.23
2023-05-24T23:39:24.254Z,5.73
2023-05-24T23:41:52.497Z,5.67
2023-05-24T23:44:23.617Z,7.43
2023-05-24T23:46:52.087Z,6.23
2023-05-24T23:49:21.123Z,5.60
2023-05-24T23:51:49.406Z,5.40
2023-05-24T23:54:19.172Z,10.17
2023-05-24T23:56:49.173Z,8.80
2023-05-24T23:59:17.718Z,7.00
